(°C)
24°
23°
22°
20°
19°
20°
22°
(°C)
27°
25°
23°
22°
21°
22°
24°
დჩდ
ჩდ
დჩდ
დჩდ
დჩდ
დჩდ
დას.
(კმ/სთ)
10-29
11-30
10-26
8-20
7-14
6-11
5-10
(მმ)
0
0
0
0
0
0
0
(%)
0
0
0
0
0
0
0

მზის სიმაღლე

/ -27.9°
sun-icon
UV 8
05:45
20:24
ახალგაზრდა მთვარე (291°)
00:35
15:37

METAR 44.1°ჩრ. 15.3°აღმ. (LDZD)-თვის

დრო პირობები ტემპერატურა/
ნამი
ქარი ხილვადობა ამინდი ღრუბლები წნევა ცვლილება დაუმუშავებელი
VFR 24°C / 18°C 350º variable 310º to 020º 4kt >10km - Clouds and Visibility OK 1009 - LDZD 012300Z 35004KT 310V020 CAVOK 24/18 Q1009
VFR 25°C / 19°C 320º 8kt >10km - Few Clouds 6000ft 1009 No Significant change LDZD 012230Z 32008KT 9999 FEW060 25/19 Q1009 NOSIG
VFR 26°C / 17°C variable 3kt >10km - Few Clouds 6000ft 1008 No Significant change LDZD 012200Z VRB03KT 9999 FEW060 26/17 Q1008 NOSIG
VFR 26°C / 15°C 200º variable 140º to 260º 3kt >10km - Few Clouds 6000ft 1008 No Significant change LDZD 012130Z 20003KT 140V260 9999 FEW060 26/15 Q1008 NOSIG
VFR 25°C / 17°C 240º variable 190º to 280º 4kt >10km - Few Clouds 6000ft 1008 No Significant change LDZD 012100Z 24004KT 190V280 9999 FEW060 25/17 Q1008 NOSIG
VFR 25°C / 18°C variable 2kt >10km - Few Clouds 6000ft 1008 No Significant change LDZD 012030Z VRB02KT 9999 FEW060 25/18 Q1008 NOSIG
VFR 25°C / 19°C 120º 5kt >10km - Few Clouds 6000ft 1008 No Significant change LDZD 012000Z 12005KT 9999 FEW060 25/19 Q1008 NOSIG
VFR 26°C / 19°C 280º 4kt >10km - Few Clouds 6000ft 1008 No Significant change LDZD 011930Z 28004KT 9999 FEW060 26/19 Q1008 NOSIG
VFR 28°C / 19°C 260º 6kt >10km - Few Clouds 6000ft 1008 No Significant change LDZD 011900Z 26006KT 9999 FEW060 28/19 Q1008 NOSIG
VFR 30°C / 16°C 230º variable 210º to 280º 8kt >10km - Few Clouds 6000ft 1007 Becoming: Wind 290º 9kt. LDZD 011830Z 23008KT 210V280 9999 FEW060 30/16 Q1007 BECMG 29009KT
VFR 32°C / 15°C 220º 7kt >10km - Few Clouds 6000ft 1007 Becoming: Wind 290º 9kt. LDZD 011800Z 22007KT 9999 FEW060 32/15 Q1007 BECMG 29009KT
VFR 32°C / 17°C 160º variable 120º to 220º 6kt >10km - Clouds and Visibility OK 1006 Becoming: until Wind 290º 9kt. LDZD 011730Z 16006KT 120V220 CAVOK 32/17 Q1006 BECMG TL1800 29009KT
VFR 33°C / 16°C 190º variable 130º to 240º 7kt >10km - Clouds and Visibility OK 1006 Becoming: until Wind 290º 9kt. LDZD 011700Z 19007KT 130V240 CAVOK 33/16 Q1006 BECMG TL1800 29009KT
VFR 34°C / 16°C 160º variable 130º to 210º 9kt >10km - Few Clouds 4000ft 1006 Becoming: Wind 240º 9kt. LDZD 011630Z 16009KT 130V210 9999 FEW040 34/16 Q1006 BECMG 24009KT
VFR 33°C / 18°C 140º variable 110º to 190º 10kt >10km - Few Clouds 4000ft 1006 No Significant change LDZD 011600Z 14010KT 110V190 9999 FEW040 33/18 Q1006 NOSIG
VFR 33°C / 19°C 170º 10kt >10km - Few Clouds 4000ft 1006 No Significant change LDZD 011530Z 17010KT 9999 FEW040 33/19 Q1006 NOSIG
VFR 32°C / 19°C 160º variable 120º to 200º 9kt >10km - Few Clouds 4000ft 1006 No Significant change LDZD 011500Z 16009KT 120V200 9999 FEW040 32/19 Q1006 NOSIG
VFR 32°C / 20°C 190º variable 130º to 240º 7kt >10km - Few Clouds 3500ft 1006 No Significant change LDZD 011430Z 19007KT 130V240 9999 FEW035 32/20 Q1006 NOSIG
VFR 33°C / 20°C 200º variable 150º to 240º 8kt >10km - Few Clouds 3500ft 1006 No Significant change LDZD 011400Z 20008KT 150V240 9999 FEW035 33/20 Q1006 NOSIG
VFR 33°C / 19°C 200º variable 170º to 240º 11kt >10km - Few Clouds 3500ft 1006 No Significant change LDZD 011330Z 20011KT 170V240 9999 FEW035 33/19 Q1006 NOSIG
VFR 33°C / 20°C 190º 14kt >10km - Clouds and Visibility OK 1007 No Significant change LDZD 011300Z 19014KT CAVOK 33/20 Q1007 NOSIG
VFR 33°C / 20°C 200º variable 160º to 240º 14kt >10km - Clouds and Visibility OK 1006 No Significant change LDZD 011230Z 20014KT 160V240 CAVOK 33/20 Q1006 NOSIG
VFR 34°C / 20°C 190º variable 150º to 220º 15kt >10km - Few Clouds 3500ft 1007 No Significant change LDZD 011200Z 19015KT 150V220 9999 FEW035 SCT050 34/20 Q1007 NOSIG
VFR 33°C / 18°C 190º variable 150º to 210º 13kt >10km - Few Clouds 3500ft 1006 No Significant change LDZD 011130Z 19013KT 150V210 9999 FEW035 SCT050 33/18 Q1006 NOSIG

VFR

24°C / 18°C

[მეტი]
ქარი 350º variable 310º to 020º 4kt
ხილვადობა >10km
ამინდი -
ღრუბლები Clouds and Visibility OK
წნევა 1009
ცვლილება -
დაუმუშავებელი LDZD 012300Z 35004KT 310V020 CAVOK 24/18 Q1009

VFR

25°C / 19°C

[მეტი]
ქარი 320º 8kt
ხილვადობა >10km
ამინდი -
ღრუბლები Few Clouds 6000ft
წნევა 1009
ცვლილება No Significant change
დაუმუშავებელი LDZD 012230Z 32008KT 9999 FEW060 25/19 Q1009 NOSIG

VFR

26°C / 17°C

[მეტი]
ქარი variable 3kt
ხილვადობა >10km
ამინდი -
ღრუბლები Few Clouds 6000ft
წნევა 1008
ცვლილება No Significant change
დაუმუშავებელი LDZD 012200Z VRB03KT 9999 FEW060 26/17 Q1008 NOSIG

VFR

26°C / 15°C

[მეტი]
ქარი 200º variable 140º to 260º 3kt
ხილვადობა >10km
ამინდი -
ღრუბლები Few Clouds 6000ft
წნევა 1008
ცვლილება No Significant change
დაუმუშავებელი LDZD 012130Z 20003KT 140V260 9999 FEW060 26/15 Q1008 NOSIG

VFR

25°C / 17°C

[მეტი]
ქარი 240º variable 190º to 280º 4kt
ხილვადობა >10km
ამინდი -
ღრუბლები Few Clouds 6000ft
წნევა 1008
ცვლილება No Significant change
დაუმუშავებელი LDZD 012100Z 24004KT 190V280 9999 FEW060 25/17 Q1008 NOSIG

VFR

25°C / 18°C

[მეტი]
ქარი variable 2kt
ხილვადობა >10km
ამინდი -
ღრუბლები Few Clouds 6000ft
წნევა 1008
ცვლილება No Significant change
დაუმუშავებელი LDZD 012030Z VRB02KT 9999 FEW060 25/18 Q1008 NOSIG

VFR

25°C / 19°C

[მეტი]
ქარი 120º 5kt
ხილვადობა >10km
ამინდი -
ღრუბლები Few Clouds 6000ft
წნევა 1008
ცვლილება No Significant change
დაუმუშავებელი LDZD 012000Z 12005KT 9999 FEW060 25/19 Q1008 NOSIG

VFR

26°C / 19°C

[მეტი]
ქარი 280º 4kt
ხილვადობა >10km
ამინდი -
ღრუბლები Few Clouds 6000ft
წნევა 1008
ცვლილება No Significant change
დაუმუშავებელი LDZD 011930Z 28004KT 9999 FEW060 26/19 Q1008 NOSIG

VFR

28°C / 19°C

[მეტი]
ქარი 260º 6kt
ხილვადობა >10km
ამინდი -
ღრუბლები Few Clouds 6000ft
წნევა 1008
ცვლილება No Significant change
დაუმუშავებელი LDZD 011900Z 26006KT 9999 FEW060 28/19 Q1008 NOSIG

VFR

30°C / 16°C

[მეტი]
ქარი 230º variable 210º to 280º 8kt
ხილვადობა >10km
ამინდი -
ღრუბლები Few Clouds 6000ft
წნევა 1007
ცვლილება Becoming: Wind 290º 9kt.
დაუმუშავებელი LDZD 011830Z 23008KT 210V280 9999 FEW060 30/16 Q1007 BECMG 29009KT

VFR

32°C / 15°C

[მეტი]
ქარი 220º 7kt
ხილვადობა >10km
ამინდი -
ღრუბლები Few Clouds 6000ft
წნევა 1007
ცვლილება Becoming: Wind 290º 9kt.
დაუმუშავებელი LDZD 011800Z 22007KT 9999 FEW060 32/15 Q1007 BECMG 29009KT

VFR

32°C / 17°C

[მეტი]
ქარი 160º variable 120º to 220º 6kt
ხილვადობა >10km
ამინდი -
ღრუბლები Clouds and Visibility OK
წნევა 1006
ცვლილება Becoming: until Wind 290º 9kt.
დაუმუშავებელი LDZD 011730Z 16006KT 120V220 CAVOK 32/17 Q1006 BECMG TL1800 29009KT

VFR

33°C / 16°C

[მეტი]
ქარი 190º variable 130º to 240º 7kt
ხილვადობა >10km
ამინდი -
ღრუბლები Clouds and Visibility OK
წნევა 1006
ცვლილება Becoming: until Wind 290º 9kt.
დაუმუშავებელი LDZD 011700Z 19007KT 130V240 CAVOK 33/16 Q1006 BECMG TL1800 29009KT

VFR

34°C / 16°C

[მეტი]
ქარი 160º variable 130º to 210º 9kt
ხილვადობა >10km
ამინდი -
ღრუბლები Few Clouds 4000ft
წნევა 1006
ცვლილება Becoming: Wind 240º 9kt.
დაუმუშავებელი LDZD 011630Z 16009KT 130V210 9999 FEW040 34/16 Q1006 BECMG 24009KT

VFR

33°C / 18°C

[მეტი]
ქარი 140º variable 110º to 190º 10kt
ხილვადობა >10km
ამინდი -
ღრუბლები Few Clouds 4000ft
წნევა 1006
ცვლილება No Significant change
დაუმუშავებელი LDZD 011600Z 14010KT 110V190 9999 FEW040 33/18 Q1006 NOSIG

VFR

33°C / 19°C

[მეტი]
ქარი 170º 10kt
ხილვადობა >10km
ამინდი -
ღრუბლები Few Clouds 4000ft
წნევა 1006
ცვლილება No Significant change
დაუმუშავებელი LDZD 011530Z 17010KT 9999 FEW040 33/19 Q1006 NOSIG

VFR

32°C / 19°C

[მეტი]
ქარი 160º variable 120º to 200º 9kt
ხილვადობა >10km
ამინდი -
ღრუბლები Few Clouds 4000ft
წნევა 1006
ცვლილება No Significant change
დაუმუშავებელი LDZD 011500Z 16009KT 120V200 9999 FEW040 32/19 Q1006 NOSIG

VFR

32°C / 20°C

[მეტი]
ქარი 190º variable 130º to 240º 7kt
ხილვადობა >10km
ამინდი -
ღრუბლები Few Clouds 3500ft
წნევა 1006
ცვლილება No Significant change
დაუმუშავებელი LDZD 011430Z 19007KT 130V240 9999 FEW035 32/20 Q1006 NOSIG

VFR

33°C / 20°C

[მეტი]
ქარი 200º variable 150º to 240º 8kt
ხილვადობა >10km
ამინდი -
ღრუბლები Few Clouds 3500ft
წნევა 1006
ცვლილება No Significant change
დაუმუშავებელი LDZD 011400Z 20008KT 150V240 9999 FEW035 33/20 Q1006 NOSIG

VFR

33°C / 19°C

[მეტი]
ქარი 200º variable 170º to 240º 11kt
ხილვადობა >10km
ამინდი -
ღრუბლები Few Clouds 3500ft
წნევა 1006
ცვლილება No Significant change
დაუმუშავებელი LDZD 011330Z 20011KT 170V240 9999 FEW035 33/19 Q1006 NOSIG

VFR

33°C / 20°C

[მეტი]
ქარი 190º 14kt
ხილვადობა >10km
ამინდი -
ღრუბლები Clouds and Visibility OK
წნევა 1007
ცვლილება No Significant change
დაუმუშავებელი LDZD 011300Z 19014KT CAVOK 33/20 Q1007 NOSIG

VFR

33°C / 20°C

[მეტი]
ქარი 200º variable 160º to 240º 14kt
ხილვადობა >10km
ამინდი -
ღრუბლები Clouds and Visibility OK
წნევა 1006
ცვლილება No Significant change
დაუმუშავებელი LDZD 011230Z 20014KT 160V240 CAVOK 33/20 Q1006 NOSIG

VFR

34°C / 20°C

[მეტი]
ქარი 190º variable 150º to 220º 15kt
ხილვადობა >10km
ამინდი -
ღრუბლები Few Clouds 3500ft
წნევა 1007
ცვლილება No Significant change
დაუმუშავებელი LDZD 011200Z 19015KT 150V220 9999 FEW035 SCT050 34/20 Q1007 NOSIG

VFR

33°C / 18°C

[მეტი]
ქარი 190º variable 150º to 210º 13kt
ხილვადობა >10km
ამინდი -
ღრუბლები Few Clouds 3500ft
წნევა 1006
ცვლილება No Significant change
დაუმუშავებელი LDZD 011130Z 19013KT 150V210 9999 FEW035 SCT050 33/18 Q1006 NOSIG

TAF 44.1°ჩრ. 15.3°აღმ. (LDZD)-თვის

From till


Maximum Temperature 30ºC on . Minimum Temperature 18ºC on .
From till Wind 100º 5kt. Visibility 10km or more. Few Clouds 5000ft.
With 30% probability, Temporarly from till Wind 310º 9kt.
Becoming from till Wind 240º 8kt. Visibility 10km or more. Few Clouds 5000ft.
Becoming from till Wind 300º 4kt. Visibility 10km or more. Few Clouds 5000ft.

დაუმუშავებელი: TAF AMD LDZD 012002Z 0120/0218 10005KT 9999 FEW050 TX30/0212Z TN18/0203Z PROB30 TEMPO 0121/0123 31009KT BECMG 0209/0211 24008KT BECMG 0214/0216 30004KT

მიმდინარე სატელიტისა და წვიმის სურათები 44.1°ჩრ. 15.3°აღმ.-თვის

ლოკაციის მარკერი დაყენებყლია 44.1°ჩრ. 15.3°აღმ.ზე. [მეტი]

რეალურ დროში სატელიტური სურათი აერთიანებს ხილულ სინათლეს დღისით ღამის განმავლობაში ინფრაწითელ გამოსხივებასთან ერთად. ღამით, სურათი არ არის მუქი, რადგან ინფრაწითელ გამოსხივებას შეუძლია ტემპერატურის განსხვავებების დადგენა. სამწუხაროდ, დაბალი ღრუბლები და ნისლი ძნელია განასხვავონ მიწის ტემპერატურისგან და, შესაბამისად, ისინი შეიძლება თითქმის არ ჩანდეს ღამით. Meteosat სატელიტური გამოსახულება ევროპისთვის ახლდება რეალურ დროში ყოველ 5 წუთში. GOES-16/GOES-17 (ჩრდილოეთი და სამხრეთ ამერიკა) და ჰიმავარი (აზია) გამოსახულებები ახლდება ყოველ 10 წუთში.

ნალექიანობა განისაზღვრება რადარიდან ან სატელიტიდან. ღამით ნალექიანობის განსაზღვრა სატელიტიდან ნაკლებად ზუსტია ვიდრე დღისით. ნარინჯისფერი ჯვრები აღნიშნავს ადგილებს, სადაც ელვა იყო დაფიქსირებული (ევროპაზე).

საავტორო უფლებები 2021 EUMETSAT / meteoblue. ელვის შესახებ მონაცემები მოწოდებული nowcast მიერ.

რადარის და ნალექების მაჩვენებელი 44.1°ჩრ. 15.3°აღმ. -თვის

გაწურეთ
Მსუბუქი
ზომიერი
Მძიმე
Ძალიან მძიმე
სეტყვა

მდებარეობის მარკერი მოთავსებულია 44.1°ჩრ. 15.3°აღმ. -ზე. ეს ანიმაცია აჩვენებს ნალექების სარადარო მონაცემებს როგორც ბოლო საათის განმავლობაში, ასევე 1h პროგნოზს. ჟინჟღვლა და მსუბუქი თოვლი შესაძლოა რადარისთვის შეუმჩნეველი იყოს. ნალექის ინტენსიურობა ფერებით არის კოდირებული, დაწყებული ღია ცისფერიდან მუქ მეწამულამდე.